createdAt,value
2018-08-28T00:00:18.818Z,2.20
2018-08-28T00:02:46.983Z,2.20
2018-08-28T00:05:15.137Z,2.10
2018-08-28T00:07:43.323Z,3.60
2018-08-28T00:10:11.479Z,3.72
2018-08-28T00:12:39.674Z,2.80
2018-08-28T00:15:07.830Z,2.45
2018-08-28T00:17:36.031Z,2.40
2018-08-28T00:20:04.195Z,2.30
2018-08-28T00:22:32.370Z,2.00
2018-08-28T00:25:00.527Z,2.40
2018-08-28T00:27:28.734Z,2.02
2018-08-28T00:29:57.218Z,2.00
2018-08-28T00:32:25.436Z,2.40
2018-08-28T00:34:53.625Z,2.10
2018-08-28T00:37:21.814Z,2.40
2018-08-28T00:39:49.995Z,1.70
2018-08-28T00:42:18.186Z,2.40
2018-08-28T00:44:46.398Z,1.90
2018-08-28T00:47:14.601Z,2.22
2018-08-28T00:49:42.785Z,2.23
2018-08-28T00:52:10.964Z,2.50
2018-08-28T00:54:39.158Z,2.33
2018-08-28T00:57:07.354Z,2.05
2018-08-28T00:59:35.539Z,2.40
2018-08-28T01:02:03.723Z,2.50
2018-08-28T01:04:31.905Z,2.45
2018-08-28T01:07:00.110Z,2.20
2018-08-28T01:09:28.310Z,2.40
2018-08-28T01:11:56.494Z,2.20
2018-08-28T01:14:24.658Z,2.00
2018-08-28T01:16:52.822Z,2.80
2018-08-28T01:19:21.002Z,2.00
2018-08-28T01:21:49.166Z,1.90
2018-08-28T01:24:17.350Z,2.43
2018-08-28T01:26:45.522Z,2.17
2018-08-28T01:29:13.706Z,2.13
2018-08-28T01:31:41.883Z,2.47
2018-08-28T01:34:10.059Z,2.60
2018-08-28T01:36:38.225Z,2.33
2018-08-28T01:39:06.931Z,2.47
2018-08-28T01:41:35.110Z,2.60
2018-08-28T01:44:03.294Z,2.40
2018-08-28T01:46:31.470Z,2.00
2018-08-28T01:48:59.649Z,2.40
2018-08-28T01:51:27.815Z,2.30
2018-08-28T01:53:55.990Z,2.03
2018-08-28T01:56:24.162Z,2.50
2018-08-28T01:58:52.342Z,2.73
2018-08-28T02:01:20.517Z,2.90
2018-08-28T02:03:48.689Z,2.30
2018-08-28T02:06:16.866Z,1.97
2018-08-28T02:08:45.041Z,2.43
2018-08-28T02:11:13.210Z,2.40
2018-08-28T02:13:41.381Z,2.63
2018-08-28T02:16:09.565Z,2.63
2018-08-28T02:18:37.734Z,2.47
2018-08-28T02:21:05.915Z,2.47
2018-08-28T02:23:34.086Z,2.40
2018-08-28T02:26:02.250Z,2.67
2018-08-28T02:28:30.442Z,2.70
2018-08-28T02:30:58.614Z,2.53
2018-08-28T02:33:26.832Z,2.53
2018-08-28T02:35:54.965Z,2.67
2018-08-28T02:38:23.142Z,2.70
2018-08-28T02:40:51.313Z,3.33
2018-08-28T02:43:19.485Z,2.80
2018-08-28T02:45:47.658Z,2.50
2018-08-28T02:48:15.833Z,2.57
2018-08-28T02:50:44.006Z,2.60
2018-08-28T02:53:12.193Z,2.43
2018-08-28T02:55:40.363Z,2.47
2018-08-28T02:58:08.568Z,2.73
2018-08-28T03:00:36.738Z,2.30
2018-08-28T03:03:04.944Z,2.60
2018-08-28T03:05:33.111Z,2.07
2018-08-28T03:08:01.280Z,2.00
2018-08-28T03:10:29.459Z,2.63
2018-08-28T03:12:57.638Z,2.50
2018-08-28T03:15:25.895Z,2.07
2018-08-28T03:17:54.014Z,2.50
2018-08-28T03:20:22.197Z,2.70
2018-08-28T03:22:50.370Z,3.00
2018-08-28T03:25:18.553Z,2.20
2018-08-28T03:27:46.733Z,2.40
2018-08-28T03:30:14.919Z,2.90
2018-08-28T03:32:43.086Z,2.20
2018-08-28T03:35:11.266Z,2.33
2018-08-28T03:37:39.438Z,2.40
2018-08-28T03:40:07.626Z,2.70
2018-08-28T03:42:35.795Z,2.70
2018-08-28T03:45:04.231Z,2.30
2018-08-28T03:47:32.614Z,2.57
2018-08-28T03:50:00.792Z,2.40
2018-08-28T03:52:28.973Z,2.50
2018-08-28T03:54:57.158Z,3.00
2018-08-28T03:57:25.334Z,2.47
2018-08-28T03:59:53.518Z,2.37
2018-08-28T04:02:21.699Z,2.80
2018-08-28T04:04:49.865Z,2.60
2018-08-28T04:07:18.036Z,3.03
2018-08-28T04:09:46.217Z,2.20
2018-08-28T04:12:14.393Z,2.70
2018-08-28T04:14:42.575Z,2.73
2018-08-28T04:17:10.783Z,3.40
2018-08-28T04:19:38.935Z,2.60
2018-08-28T04:22:07.111Z,2.73
2018-08-28T04:24:35.293Z,2.60
2018-08-28T04:27:03.485Z,2.47
2018-08-28T04:29:31.670Z,2.50
2018-08-28T04:31:59.845Z,2.50
2018-08-28T04:34:28.038Z,2.20
2018-08-28T04:36:56.210Z,2.50
2018-08-28T04:39:24.402Z,2.40
2018-08-28T04:41:52.606Z,2.83
2018-08-28T04:44:20.754Z,2.90
2018-08-28T04:46:48.923Z,2.10
2018-08-28T04:49:17.100Z,2.50
2018-08-28T04:51:45.283Z,2.37
2018-08-28T04:54:13.505Z,2.67
2018-08-28T04:56:41.634Z,2.90
2018-08-28T04:59:09.813Z,3.27
2018-08-28T05:01:37.998Z,2.50
2018-08-28T05:04:06.175Z,2.93
2018-08-28T05:06:34.354Z,3.00
2018-08-28T05:09:02.530Z,2.33
2018-08-28T05:11:30.711Z,2.30
2018-08-28T05:13:58.889Z,2.47
2018-08-28T05:16:27.067Z,2.67
2018-08-28T05:18:55.240Z,2.40
2018-08-28T05:21:23.423Z,2.63
2018-08-28T05:23:51.595Z,2.57
2018-08-28T05:26:19.769Z,2.50
2018-08-28T05:28:47.966Z,2.60
2018-08-28T05:31:16.129Z,2.47
2018-08-28T05:33:44.293Z,2.90
2018-08-28T05:36:12.461Z,2.57
2018-08-28T05:38:40.642Z,2.63
2018-08-28T05:41:08.823Z,2.80
2018-08-28T05:43:36.990Z,2.40
2018-08-28T05:46:05.174Z,2.70
2018-08-28T05:48:33.342Z,2.07
2018-08-28T05:51:01.522Z,3.03
2018-08-28T05:53:29.697Z,3.00
2018-08-28T05:55:57.929Z,2.60
2018-08-28T05:58:26.050Z,2.43
2018-08-28T06:00:54.226Z,2.40
2018-08-28T06:03:22.558Z,2.70
2018-08-28T06:05:50.582Z,2.90
2018-08-28T06:08:19.018Z,3.30
2018-08-28T06:10:47.229Z,2.80
2018-08-28T06:13:15.400Z,2.80
2018-08-28T06:15:43.599Z,2.67
2018-08-28T06:18:11.771Z,2.43
2018-08-28T06:20:39.963Z,2.43
2018-08-28T06:23:08.219Z,3.20
2018-08-28T06:25:36.319Z,3.20
2018-08-28T06:28:04.570Z,3.20
2018-08-28T06:30:32.751Z,3.20
2018-08-28T06:33:00.919Z,2.40
2018-08-28T06:35:29.109Z,4.00
2018-08-28T06:37:57.295Z,3.00
2018-08-28T06:40:25.467Z,3.33
2018-08-28T06:42:53.641Z,3.47
2018-08-28T06:45:21.815Z,3.33
2018-08-28T06:47:49.993Z,3.50
2018-08-28T06:50:18.170Z,3.00
2018-08-28T06:52:46.348Z,3.03
2018-08-28T06:55:14.527Z,3.13
2018-08-28T06:57:42.731Z,5.10
2018-08-28T07:00:10.909Z,5.60
2018-08-28T07:02:39.090Z,5.07
2018-08-28T07:05:07.275Z,5.50
2018-08-28T07:07:35.466Z,5.20
2018-08-28T07:10:03.710Z,6.57
2018-08-28T07:12:31.837Z,6.43
2018-08-28T07:15:00.015Z,7.23
2018-08-28T07:17:28.293Z,7.67
2018-08-28T07:19:56.467Z,6.87
2018-08-28T07:22:25.437Z,7.07
2018-08-28T07:24:53.618Z,8.87
2018-08-28T07:27:21.812Z,6.60
2018-08-28T07:29:49.978Z,7.43
2018-08-28T07:32:18.206Z,7.63
2018-08-28T07:34:46.378Z,7.60
2018-08-28T07:37:14.580Z,8.00
2018-08-28T07:39:42.726Z,8.50
2018-08-28T07:42:11.078Z,7.37
2018-08-28T07:44:39.256Z,8.10
2018-08-28T07:47:07.442Z,8.07
2018-08-28T07:49:35.621Z,7.20
2018-08-28T07:52:03.806Z,8.07
2018-08-28T07:54:31.983Z,7.60
2018-08-28T07:57:00.167Z,7.63
2018-08-28T07:59:28.354Z,7.33
2018-08-28T08:01:56.538Z,6.00
2018-08-28T08:04:24.710Z,6.80
2018-08-28T08:06:52.891Z,6.03
2018-08-28T08:09:21.069Z,6.00
2018-08-28T08:11:49.261Z,6.73
2018-08-28T08:14:17.450Z,6.25
2018-08-28T08:16:45.655Z,6.33
2018-08-28T08:19:13.845Z,6.15
2018-08-28T08:21:42.034Z,6.55
2018-08-28T08:24:10.236Z,6.60
2018-08-28T08:26:38.457Z,6.40
2018-08-28T08:29:06.913Z,6.55
2018-08-28T08:31:35.114Z,6.00
2018-08-28T08:34:03.318Z,6.37
2018-08-28T08:36:31.528Z,6.28
2018-08-28T08:38:59.726Z,6.10
2018-08-28T08:41:27.919Z,5.60
2018-08-28T08:43:56.123Z,5.45
2018-08-28T08:46:24.298Z,5.80
2018-08-28T08:48:52.478Z,5.15
2018-08-28T08:51:20.690Z,6.58
2018-08-28T08:53:49.005Z,6.30
2018-08-28T08:56:17.204Z,6.33
2018-08-28T08:58:45.385Z,5.95
2018-08-28T09:01:13.564Z,6.00
2018-08-28T09:03:41.762Z,6.33
2018-08-28T09:06:10.036Z,6.72
2018-08-28T09:08:38.162Z,6.20
2018-08-28T09:11:06.355Z,5.90
2018-08-28T09:13:34.636Z,6.40
2018-08-28T09:16:02.747Z,6.60
2018-08-28T09:18:30.935Z,5.80
2018-08-28T09:20:59.110Z,6.08
2018-08-28T09:23:27.314Z,7.03
2018-08-28T09:25:55.509Z,6.85
2018-08-28T09:28:23.703Z,7.25
2018-08-28T09:30:51.902Z,7.00
2018-08-28T09:33:20.094Z,7.15
2018-08-28T09:35:48.274Z,7.58
2018-08-28T09:40:14.329Z,7.78
2018-08-28T09:42:42.613Z,7.30
2018-08-28T09:45:10.888Z,7.33
2018-08-28T09:47:39.141Z,7.60
2018-08-28T09:50:07.462Z,7.63
2018-08-28T09:52:35.705Z,7.83
2018-08-28T09:55:04.017Z,7.70
2018-08-28T09:57:32.292Z,8.00
2018-08-28T10:00:00.785Z,7.17
2018-08-28T10:02:29.081Z,8.98
2018-08-28T10:04:57.483Z,8.33
2018-08-28T10:07:25.633Z,8.30
2018-08-28T10:09:53.889Z,7.70
2018-08-28T10:12:22.132Z,7.78
2018-08-28T10:14:50.432Z,7.78
2018-08-28T10:17:18.759Z,7.83
2018-08-28T10:19:46.994Z,7.42
2018-08-28T10:22:15.241Z,6.80
2018-08-28T10:24:43.492Z,6.70
2018-08-28T10:27:11.765Z,7.00
2018-08-28T10:29:40.095Z,8.00
2018-08-28T10:32:08.320Z,7.65
2018-08-28T10:34:36.605Z,7.60
2018-08-28T10:37:05.062Z,7.78
2018-08-28T10:39:33.324Z,8.48
2018-08-28T10:42:01.601Z,8.23
2018-08-28T10:44:29.877Z,8.23
2018-08-28T10:46:58.190Z,8.60
2018-08-28T10:49:26.405Z,7.60
2018-08-28T10:51:54.647Z,7.40
2018-08-28T10:54:22.928Z,7.70
2018-08-28T10:56:51.188Z,8.10
2018-08-28T10:59:19.465Z,8.80
2018-08-28T11:01:47.735Z,8.40
2018-08-28T11:04:16.007Z,8.58
2018-08-28T11:06:44.279Z,8.15
2018-08-28T11:09:12.548Z,8.85
2018-08-28T11:11:40.792Z,8.88
2018-08-28T11:14:09.056Z,8.90
2018-08-28T11:16:37.317Z,8.50
2018-08-28T11:19:05.705Z,8.60
2018-08-28T11:21:33.995Z,8.70
2018-08-28T11:24:02.274Z,8.45
2018-08-28T11:26:30.537Z,8.70
2018-08-28T11:28:58.808Z,8.30
2018-08-28T11:31:27.198Z,8.20
2018-08-28T11:33:55.568Z,9.35
2018-08-28T11:36:23.857Z,9.05
2018-08-28T11:38:52.116Z,9.70
2018-08-28T11:41:20.452Z,9.30
2018-08-28T11:43:48.704Z,8.90
2018-08-28T11:46:16.985Z,9.65
2018-08-28T11:48:45.258Z,9.15
2018-08-28T11:51:13.524Z,9.23
2018-08-28T11:53:41.801Z,9.60
2018-08-28T11:56:10.117Z,9.00
2018-08-28T11:58:38.424Z,8.78
2018-08-28T12:01:06.712Z,8.70
2018-08-28T12:03:34.993Z,8.57
2018-08-28T12:06:03.252Z,9.08
2018-08-28T12:08:31.529Z,8.73
2018-08-28T12:10:59.809Z,9.75
2018-08-28T12:13:28.085Z,9.43
2018-08-28T12:15:56.376Z,9.60
2018-08-28T12:18:24.655Z,8.70
2018-08-28T12:20:53.045Z,9.63
2018-08-28T12:23:21.205Z,8.73
2018-08-28T12:25:49.485Z,8.90
2018-08-28T12:28:17.768Z,8.68
2018-08-28T12:30:46.037Z,8.93
2018-08-28T12:33:14.321Z,9.13
2018-08-28T12:35:42.673Z,9.15
2018-08-28T12:38:10.940Z,9.43
2018-08-28T12:40:39.259Z,9.25
2018-08-28T12:43:07.551Z,9.30
2018-08-28T12:45:35.816Z,9.20
2018-08-28T12:48:04.084Z,8.75
2018-08-28T12:50:32.355Z,8.90
2018-08-28T12:53:00.625Z,9.20
2018-08-28T12:55:28.901Z,9.00
2018-08-28T12:57:57.165Z,9.97
2018-08-28T13:00:25.530Z,9.30
2018-08-28T13:02:53.720Z,9.05
2018-08-28T13:05:21.984Z,9.40
2018-08-28T13:07:50.244Z,9.17
2018-08-28T13:10:18.530Z,9.15
2018-08-28T13:12:46.814Z,8.65
2018-08-28T13:15:15.829Z,9.83
2018-08-28T13:17:44.197Z,9.23
2018-08-28T13:20:12.481Z,9.40
2018-08-28T13:22:40.763Z,9.90
2018-08-28T13:25:09.735Z,9.83
2018-08-28T13:27:38.152Z,9.75
2018-08-28T13:30:06.457Z,9.20
2018-08-28T13:32:34.761Z,9.50
2018-08-28T13:35:03.042Z,10.30
2018-08-28T13:37:31.379Z,9.50
2018-08-28T13:39:59.643Z,9.48
2018-08-28T13:42:27.948Z,9.60
2018-08-28T13:44:56.205Z,9.00
2018-08-28T13:47:24.493Z,9.30
2018-08-28T13:49:52.745Z,10.20
2018-08-28T13:52:21.033Z,9.25
2018-08-28T13:54:49.368Z,8.83
2018-08-28T13:57:17.651Z,9.20
2018-08-28T13:59:45.979Z,9.25
2018-08-28T14:02:14.234Z,8.73
2018-08-28T14:04:42.557Z,9.55
2018-08-28T14:07:10.940Z,9.30
2018-08-28T14:09:39.203Z,9.68
2018-08-28T14:12:07.490Z,9.98
2018-08-28T14:14:35.761Z,9.63
2018-08-28T14:17:04.047Z,10.13
2018-08-28T14:19:32.306Z,10.10
2018-08-28T14:22:00.581Z,9.80
2018-08-28T14:24:28.958Z,10.20
2018-08-28T14:26:57.177Z,9.80
2018-08-28T14:29:25.566Z,10.13
2018-08-28T14:31:53.834Z,9.93
2018-08-28T14:34:22.100Z,10.10
2018-08-28T14:36:50.444Z,10.08
2018-08-28T14:39:18.773Z,9.53
2018-08-28T14:41:47.131Z,10.03
2018-08-28T14:44:15.396Z,9.70
2018-08-28T14:46:43.660Z,10.00
2018-08-28T14:49:11.909Z,9.57
2018-08-28T14:51:40.198Z,9.00
2018-08-28T14:54:08.460Z,10.40
2018-08-28T14:59:04.353Z,10.53
2018-08-28T15:01:32.604Z,9.33
2018-08-28T15:04:00.870Z,9.30
2018-08-28T15:06:29.121Z,9.37
2018-08-28T15:11:24.941Z,10.20
2018-08-28T15:13:53.200Z,11.23
2018-08-28T15:16:21.471Z,9.40
2018-08-28T15:55:43.436Z,9.70
2018-08-28T15:58:11.728Z,10.35
2018-08-28T16:00:40.103Z,10.98
2018-08-28T16:03:08.444Z,10.85
2018-08-28T16:05:36.766Z,10.10
2018-08-28T16:08:05.378Z,10.70
2018-08-28T16:10:33.644Z,10.10
2018-08-28T16:13:01.978Z,10.25
2018-08-28T16:15:30.261Z,10.40
2018-08-28T16:17:58.541Z,10.58
2018-08-28T16:20:26.855Z,9.73
2018-08-28T16:23:03.909Z,10.20
2018-08-28T16:25:32.194Z,10.00
2018-08-28T16:28:00.465Z,10.60
2018-08-28T16:30:28.977Z,10.25
2018-08-28T16:32:57.301Z,9.80
2018-08-28T16:35:25.620Z,9.80
2018-08-28T16:37:53.885Z,9.30
2018-08-28T16:40:22.201Z,10.10
2018-08-28T16:42:50.658Z,9.80
2018-08-28T16:45:18.782Z,11.03
2018-08-28T16:47:47.089Z,9.73
2018-08-28T16:50:15.387Z,10.03
2018-08-28T16:52:43.639Z,10.00
2018-08-28T16:55:11.897Z,9.63
2018-08-28T16:57:40.168Z,9.45
2018-08-28T17:00:08.467Z,9.90
2018-08-28T17:02:36.747Z,9.88
2018-08-28T17:05:05.105Z,10.83
2018-08-28T17:07:33.382Z,10.30
2018-08-28T17:10:01.659Z,9.55
2018-08-28T17:12:29.938Z,9.15
2018-08-28T17:14:58.254Z,9.70
2018-08-28T17:17:26.489Z,9.55
2018-08-28T17:19:54.763Z,9.75
2018-08-28T17:22:23.021Z,9.98
2018-08-28T17:24:51.380Z,9.80
2018-08-28T17:27:19.681Z,9.80
2018-08-28T17:29:47.949Z,9.38
2018-08-28T17:32:16.229Z,10.10
2018-08-28T17:34:44.552Z,10.10
2018-08-28T17:37:12.957Z,9.40
2018-08-28T17:39:41.201Z,10.60
2018-08-28T17:42:09.481Z,10.40
2018-08-28T17:44:37.749Z,9.97
2018-08-28T17:47:06.037Z,9.83
2018-08-28T17:49:34.288Z,10.28
2018-08-28T17:52:02.574Z,9.53
2018-08-28T17:54:30.861Z,10.00
2018-08-28T17:56:59.171Z,10.03
2018-08-28T17:59:27.433Z,10.33
2018-08-28T18:01:55.725Z,10.30
2018-08-28T18:04:24.007Z,9.55
2018-08-28T18:06:52.294Z,10.30
2018-08-28T18:09:20.582Z,9.40
2018-08-28T18:11:48.854Z,9.55
2018-08-28T18:14:17.120Z,10.13
2018-08-28T18:16:45.398Z,10.20
2018-08-28T18:19:13.681Z,9.80
2018-08-28T18:21:42.035Z,9.60
2018-08-28T18:24:10.300Z,9.35
2018-08-28T18:26:38.570Z,10.32
2018-08-28T18:29:06.871Z,9.77
2018-08-28T18:31:35.181Z,9.30
2018-08-28T18:34:03.432Z,9.95
2018-08-28T18:36:31.727Z,10.18
2018-08-28T18:38:59.994Z,9.75
2018-08-28T18:41:28.286Z,10.43
2018-08-28T18:43:56.541Z,9.97
2018-08-28T18:46:24.837Z,10.00
2018-08-28T18:48:53.102Z,10.03
2018-08-28T18:51:21.397Z,10.58
2018-08-28T18:53:49.675Z,11.50
2018-08-28T18:56:18.171Z,10.30
2018-08-28T18:58:46.234Z,11.23
2018-08-28T19:01:14.521Z,9.90
2018-08-28T19:03:42.826Z,10.13
2018-08-28T19:06:11.132Z,11.22
2018-08-28T19:08:39.453Z,10.93
2018-08-28T19:11:07.783Z,10.20
2018-08-28T19:13:36.042Z,11.17
2018-08-28T19:16:04.305Z,9.17
2018-08-28T19:18:32.577Z,9.97
2018-08-28T19:45:36.501Z,10.40
2018-08-28T19:48:04.781Z,9.90
2018-08-28T19:50:33.041Z,11.00
2018-08-28T19:53:01.308Z,10.97
2018-08-28T19:55:29.586Z,9.60
2018-08-28T19:57:57.873Z,11.10
2018-08-28T20:00:26.130Z,10.33
2018-08-28T20:02:54.409Z,10.00
2018-08-28T20:05:22.657Z,10.17
2018-08-28T20:07:50.946Z,10.77
2018-08-28T20:10:19.202Z,10.87
2018-08-28T20:12:47.461Z,11.33
2018-08-28T20:15:15.734Z,10.10
2018-08-28T20:17:44.000Z,10.33
2018-08-28T20:20:12.257Z,9.93
2018-08-28T20:22:40.549Z,9.73
2018-08-28T20:25:08.804Z,9.80
2018-08-28T20:27:37.072Z,11.50
2018-08-28T20:30:05.406Z,9.60
2018-08-28T20:32:33.674Z,10.60
2018-08-28T20:35:01.921Z,11.83
2018-08-28T20:37:30.288Z,10.47
2018-08-28T20:39:58.441Z,10.87
2018-08-28T20:42:26.693Z,9.50
2018-08-28T20:44:54.932Z,11.20
2018-08-28T20:47:23.193Z,11.70
2018-08-28T20:49:51.449Z,10.10
2018-08-28T20:52:19.725Z,10.30
2018-08-28T20:54:48.001Z,10.57
2018-08-28T20:57:16.262Z,10.60
2018-08-28T20:59:44.513Z,10.93
2018-08-28T21:02:12.781Z,10.10
2018-08-28T21:04:41.020Z,9.77
2018-08-28T21:07:09.274Z,11.60
2018-08-28T21:09:37.524Z,10.90
2018-08-28T21:12:05.796Z,10.63
2018-08-28T21:19:29.248Z,12.00
2018-08-28T21:21:57.534Z,11.70
2018-08-28T21:24:25.806Z,11.28
2018-08-28T21:26:54.069Z,11.05
2018-08-28T21:29:22.367Z,9.60
2018-08-28T21:31:50.596Z,11.43
2018-08-28T21:34:18.864Z,11.03
2018-08-28T21:36:47.124Z,9.57
2018-08-28T21:39:15.376Z,10.17
2018-08-28T21:41:43.624Z,9.60
2018-08-28T21:44:12.082Z,9.40
2018-08-28T21:46:40.377Z,10.80
2018-08-28T21:49:08.640Z,11.50
2018-08-28T21:51:36.976Z,9.73
2018-08-28T21:54:05.340Z,10.97
2018-08-28T21:56:33.634Z,11.17
2018-08-28T21:59:01.889Z,10.23
2018-08-28T22:01:30.145Z,10.13
2018-08-28T22:03:58.408Z,10.47
2018-08-28T22:06:32.056Z,9.73
2018-08-28T22:09:00.302Z,9.50
2018-08-28T22:11:28.556Z,10.03
2018-08-28T22:13:56.815Z,10.80
2018-08-28T22:16:25.065Z,9.50
2018-08-28T22:18:53.328Z,10.50
2018-08-28T22:21:21.537Z,9.90
2018-08-28T22:23:49.756Z,10.33
2018-08-28T22:26:17.989Z,11.67
2018-08-28T22:28:46.212Z,10.00
2018-08-28T22:31:14.444Z,10.37
2018-08-28T22:33:42.666Z,9.73
2018-08-28T22:36:10.923Z,10.30
2018-08-28T22:38:39.097Z,10.87
2018-08-28T22:41:07.363Z,9.70
2018-08-28T22:43:35.598Z,10.33
2018-08-28T22:46:03.813Z,10.80
2018-08-28T22:48:32.069Z,10.20
2018-08-28T22:51:00.285Z,9.20
2018-08-28T22:53:28.500Z,10.20
2018-08-28T22:55:56.735Z,9.80
2018-08-28T22:58:24.940Z,10.37
2018-08-28T23:00:53.161Z,10.30
2018-08-28T23:03:21.404Z,10.37
2018-08-28T23:05:49.614Z,9.27
2018-08-28T23:08:17.827Z,11.20
2018-08-28T23:10:46.037Z,10.63
2018-08-28T23:13:14.252Z,10.73
2018-08-28T23:15:42.468Z,10.20
2018-08-28T23:18:10.671Z,9.93
2018-08-28T23:20:38.889Z,10.67
2018-08-28T23:23:07.175Z,11.97
2018-08-28T23:25:35.386Z,10.13
2018-08-28T23:28:03.596Z,9.10
2018-08-28T23:30:31.809Z,9.43
2018-08-28T23:33:00.012Z,10.53
2018-08-28T23:35:28.270Z,9.93
2018-08-28T23:37:56.444Z,9.53
2018-08-28T23:40:24.664Z,10.87
2018-08-28T23:42:52.906Z,9.87
2018-08-28T23:45:21.134Z,10.90
2018-08-28T23:47:49.429Z,10.23
2018-08-28T23:50:17.648Z,10.87
2018-08-28T23:52:45.861Z,9.33
2018-08-28T23:55:14.074Z,10.10
2018-08-28T23:57:42.297Z,9.83
